Time;durP1;ratioP1;P1;durP2;ratioP2;P2;SDS_P1;SDS_P2;PMS_P1;PMS_P2;Temp;Humidity;BMP_temperature;BMP_pressure;BME280_temperature;BME280_humidity;BME280_pressure;Samples;Min_cycle;Max_cycle;Signal;HPM_P1;HPM_P2
2023/09/06 00:01:22;;;;;;;9.32;6.20;;;18.80;99.90;;;;;;5004985;28;20032;-66
2023/09/06 00:03:47;;;;;;;7.57;5.40;;;18.70;99.90;;;;;;4998677;28;20050;-66
2023/09/06 00:06:13;;;;;;;6.97;5.53;;;18.60;99.90;;;;;;5013029;28;20150;-66
2023/09/06 00:08:38;;;;;;;6.50;5.50;;;18.40;99.90;;;;;;4986504;28;20038;-66
2023/09/06 00:11:06;;;;;;;8.02;5.82;;;18.20;99.90;;;;;;5004281;28;20045;-66
2023/09/06 00:13:33;;;;;;;10.73;6.75;;;18.20;99.90;;;;;;5012550;28;20080;-66
2023/09/06 00:16:03;;;;;;;9.65;6.68;;;18.20;99.90;;;;;;5012603;28;20080;-66
2023/09/06 00:18:29;;;;;;;8.48;6.72;;;18.30;99.90;;;;;;5004031;28;20038;-66
2023/09/06 00:20:57;;;;;;;9.05;7.00;;;18.40;99.90;;;;;;5005773;28;20113;-66
2023/09/06 00:23:24;;;;;;;8.88;6.93;;;18.40;99.90;;;;;;5012581;28;20053;-66
2023/09/06 00:25:50;;;;;;;8.63;6.65;;;18.40;99.90;;;;;;5010279;28;20038;-66
2023/09/06 00:28:19;;;;;;;9.88;7.93;;;18.50;99.90;;;;;;4998395;28;20042;-66
2023/09/06 00:30:45;;;;;;;9.20;7.57;;;18.50;99.90;;;;;;5010223;28;20123;-66
2023/09/06 00:33:10;;;;;;;8.82;6.97;;;18.50;99.90;;;;;;5011205;28;20073;-66
2023/09/06 00:35:40;;;;;;;10.13;6.78;;;18.40;99.90;;;;;;5008747;28;20120;-66
2023/09/06 00:38:06;;;;;;;9.60;6.72;;;18.40;99.90;;;;;;5011939;28;20038;-66
2023/09/06 00:40:37;;;;;;;7.75;6.53;;;18.30;99.90;;;;;;5012358;28;20044;-66
2023/09/06 00:43:04;;;;;;;10.63;7.13;;;18.30;99.90;;;;;;5010500;28;20124;-66
2023/09/06 00:45:44;;;;;;;8.30;6.80;;;18.20;99.90;;;;;;5003741;28;20112;-66
2023/09/06 00:48:17;;;;;;;10.93;6.70;;;18.10;99.90;;;;;;5005375;28;20519;-66
2023/09/06 00:50:43;;;;;;;9.38;6.90;;;18.10;99.90;;;;;;5008726;28;20037;-66
2023/09/06 00:53:09;;;;;;;8.95;7.03;;;18.00;99.90;;;;;;5003637;28;20105;-66
2023/09/06 00:55:37;;;;;;;9.98;7.32;;;17.90;99.90;;;;;;5011587;28;20113;-66
2023/09/06 00:58:06;;;;;;;7.20;6.43;;;17.90;99.90;;;;;;5012357;28;20041;-66
2023/09/06 01:00:32;;;;;;;10.40;7.13;;;17.80;99.90;;;;;;5008656;28;20408;-66
2023/09/06 01:02:58;;;;;;;11.63;7.35;;;17.70;99.90;;;;;;5003877;28;20081;-66
2023/09/06 01:05:30;;;;;;;13.20;6.88;;;17.70;99.90;;;;;;4994851;28;20511;-66
2023/09/06 01:08:02;;;;;;;8.45;6.25;;;17.70;99.90;;;;;;5003173;28;20048;-66
2023/09/06 01:10:28;;;;;;;8.50;7.28;;;17.70;99.90;;;;;;5007790;28;20052;-66
2023/09/06 01:12:55;;;;;;;10.43;7.90;;;17.70;99.90;;;;;;5010017;28;20412;-66
2023/09/06 01:15:21;;;;;;;12.13;8.05;;;17.80;99.90;;;;;;5005773;28;20033;-66
2023/09/06 01:17:49;;;;;;;11.55;7.25;;;17.80;99.90;;;;;;5009755;28;20435;-66
2023/09/06 01:20:23;;;;;;;9.32;7.35;;;17.80;99.90;;;;;;5011945;28;20041;-66
2023/09/06 01:23:14;;;;;;;15.32;7.75;;;17.80;99.90;;;;;;5010526;28;20041;-66
2023/09/06 01:25:40;;;;;;;8.25;6.88;;;17.70;99.90;;;;;;5002355;28;20038;-66
2023/09/06 01:28:05;;;;;;;11.27;7.47;;;17.70;99.90;;;;;;5011431;28;20040;-66
2023/09/06 01:30:31;;;;;;;7.95;6.75;;;17.70;99.90;;;;;;5011606;28;20041;-66
2023/09/06 01:32:57;;;;;;;8.10;7.03;;;17.70;99.90;;;;;;5006506;28;20552;-66
2023/09/06 01:35:22;;;;;;;8.95;6.93;;;17.60;99.90;;;;;;5004675;28;20041;-66
2023/09/06 01:37:50;;;;;;;11.18;7.60;;;17.60;99.90;;;;;;5011435;28;20053;-66
2023/09/06 01:40:21;;;;;;;9.77;6.55;;;17.60;99.90;;;;;;5008121;28;20150;-66
2023/09/06 01:42:47;;;;;;;8.27;6.53;;;17.50;99.90;;;;;;5005755;28;20093;-66
2023/09/06 01:45:17;;;;;;;8.60;6.75;;;17.40;99.90;;;;;;5011684;28;20502;-66
2023/09/06 01:47:49;;;;;;;10.10;8.13;;;17.40;99.90;;;;;;5008947;28;20404;-66
2023/09/06 01:50:20;;;;;;;10.50;7.38;;;17.30;99.90;;;;;;4993928;28;20062;-66
2023/09/06 01:52:46;;;;;;;8.70;7.53;;;17.30;99.90;;;;;;5009320;28;20045;-66
2023/09/06 01:55:12;;;;;;;11.10;7.45;;;17.30;99.90;;;;;;5011733;28;20083;-66
2023/09/06 01:57:38;;;;;;;10.07;7.78;;;17.30;99.90;;;;;;5004033;28;20042;-66
2023/09/06 02:00:27;;;;;;;8.73;6.82;;;17.30;99.90;;;;;;5004568;28;20029;-66
2023/09/06 02:02:54;;;;;;;10.07;7.25;;;17.20;99.90;;;;;;5011370;28;20046;-66
2023/09/06 02:05:20;;;;;;;8.07;7.10;;;17.10;99.90;;;;;;5002360;28;20047;-66
2023/09/06 02:07:46;;;;;;;10.18;7.25;;;17.00;99.90;;;;;;5009203;28;20038;-66
2023/09/06 02:10:12;;;;;;;9.30;7.00;;;17.00;99.90;;;;;;5011307;28;20050;-66
2023/09/06 02:12:38;;;;;;;9.00;7.10;;;16.90;99.90;;;;;;5011323;28;20385;-66
2023/09/06 02:15:05;;;;;;;9.85;7.13;;;16.80;99.90;;;;;;5001868;28;20061;-66
2023/09/06 02:17:32;;;;;;;9.13;6.72;;;16.80;99.90;;;;;;5010640;28;20121;-66
2023/09/06 02:20:01;;;;;;;11.05;7.32;;;16.70;99.90;;;;;;4991679;28;20513;-66
2023/09/06 02:22:27;;;;;;;8.77;7.47;;;16.70;99.90;;;;;;4997703;28;20034;-66
2023/09/06 02:24:52;;;;;;;10.07;7.47;;;16.70;99.90;;;;;;5009670;28;20117;-66
2023/09/06 02:27:18;;;;;;;17.15;7.55;;;16.80;99.90;;;;;;5014352;28;20172;-66
2023/09/06 02:29:43;;;;;;;11.20;7.97;;;16.90;99.90;;;;;;5009779;28;20038;-66
2023/09/06 02:32:09;;;;;;;11.35;7.93;;;17.10;99.90;;;;;;5004199;28;20037;-66
2023/09/06 02:34:35;;;;;;;9.43;7.90;;;17.10;99.90;;;;;;5011641;28;20123;-66
2023/09/06 02:37:00;;;;;;;9.82;8.07;;;17.20;99.90;;;;;;5014628;28;20038;-66
2023/09/06 02:39:26;;;;;;;10.52;8.27;;;17.20;99.90;;;;;;4992279;28;20041;-66
2023/09/06 02:41:52;;;;;;;11.60;8.05;;;17.20;99.90;;;;;;5012968;28;20048;-66
2023/09/06 02:44:17;;;;;;;11.45;8.80;;;17.20;99.90;;;;;;5014710;28;20038;-66
2023/09/06 02:46:43;;;;;;;10.75;8.23;;;17.20;99.90;;;;;;5012909;28;20080;-66
2023/09/06 02:49:12;;;;;;;9.40;7.95;;;17.30;99.90;;;;;;5006931;28;20037;-66
2023/09/06 02:51:38;;;;;;;11.38;8.68;;;17.30;99.90;;;;;;5013855;28;20045;-66
2023/09/06 02:54:04;;;;;;;11.90;8.10;;;17.30;99.90;;;;;;5014683;28;20038;-66
2023/09/06 02:56:30;;;;;;;10.13;7.80;;;17.30;99.90;;;;;;5007706;28;20097;-66
2023/09/06 02:58:55;;;;;;;10.45;8.00;;;17.20;99.90;;;;;;5013217;28;20038;-66
2023/09/06 03:01:21;;;;;;;9.98;7.30;;;17.20;99.90;;;;;;5014151;28;20092;-66
2023/09/06 03:03:48;;;;;;;9.65;7.07;;;17.10;99.90;;;;;;5008663;28;20066;-66
2023/09/06 03:06:18;;;;;;;9.90;7.10;;;17.00;99.90;;;;;;5008344;28;20069;-66
2023/09/06 03:08:46;;;;;;;9.30;7.20;;;16.80;99.90;;;;;;5013562;28;20038;-66
2023/09/06 03:11:14;;;;;;;9.43;7.10;;;16.60;99.90;;;;;;5013888;28;20110;-66
2023/09/06 03:13:42;;;;;;;8.52;7.32;;;16.50;99.90;;;;;;5008583;28;20042;-66
2023/09/06 03:16:13;;;;;;;9.95;7.50;;;16.40;99.90;;;;;;5007162;28;20096;-65
2023/09/06 03:18:40;;;;;;;10.70;8.35;;;16.40;99.90;;;;;;5013118;28;20117;-66
2023/09/06 03:21:06;;;;;;;13.80;8.40;;;16.50;99.90;;;;;;5005007;28;20034;-66
2023/09/06 03:23:32;;;;;;;11.05;8.57;;;16.60;99.90;;;;;;5000466;28;20084;-66
2023/09/06 03:25:58;;;;;;;10.02;7.72;;;16.60;99.90;;;;;;5002238;28;20073;-66
2023/09/06 03:28:28;;;;;;;10.85;8.27;;;16.60;99.90;;;;;;5013221;28;20709;-66
2023/09/06 03:30:58;;;;;;;8.65;7.35;;;16.50;99.90;;;;;;4996575;28;20092;-66
2023/09/06 03:33:25;;;;;;;14.65;7.50;;;16.40;99.90;;;;;;5005745;28;20030;-66
2023/09/06 03:35:51;;;;;;;8.75;7.07;;;16.30;99.90;;;;;;4989592;28;20120;-66
2023/09/06 03:38:17;;;;;;;10.45;7.63;;;16.10;99.90;;;;;;5001724;28;20457;-66
2023/09/06 03:40:46;;;;;;;11.20;8.10;;;16.00;99.90;;;;;;5011106;28;20116;-66
2023/09/06 03:43:15;;;;;;;12.00;8.27;;;16.10;99.90;;;;;;5013144;28;20068;-66
2023/09/06 03:45:55;;;;;;;11.95;8.70;;;16.10;99.90;;;;;;4995809;28;20050;-66
2023/09/06 03:48:23;;;;;;;11.90;8.52;;;16.10;99.90;;;;;;5004626;28;20508;-66
2023/09/06 03:50:55;;;;;;;10.77;8.63;;;16.20;99.90;;;;;;5011004;28;20409;-66
2023/09/06 03:53:23;;;;;;;10.27;8.18;;;16.20;99.90;;;;;;5011583;28;20052;-66
2023/09/06 03:55:50;;;;;;;9.10;7.88;;;16.20;99.90;;;;;;4986503;28;20038;-66
2023/09/06 03:58:15;;;;;;;8.52;7.28;;;16.00;99.90;;;;;;5012525;28;20523;-66
2023/09/06 04:00:44;;;;;;;9.00;7.38;;;15.90;99.90;;;;;;5012752;28;20038;-66
2023/09/06 04:03:14;;;;;;;9.50;7.18;;;15.80;99.90;;;;;;5009366;28;20045;-66
2023/09/06 04:05:40;;;;;;;8.32;6.80;;;15.80;99.90;;;;;;4999425;28;20084;-66
2023/09/06 04:08:09;;;;;;;8.88;6.63;;;15.70;99.90;;;;;;5012239;28;20412;-66
2023/09/06 04:10:36;;;;;;;10.85;7.47;;;15.60;99.90;;;;;;4996115;28;20455;-66
2023/09/06 04:13:07;;;;;;;10.23;7.60;;;15.60;99.90;;;;;;5007884;28;20121;-66
2023/09/06 04:15:35;;;;;;;13.07;8.98;;;15.60;99.90;;;;;;5012494;28;20077;-66
2023/09/06 04:18:03;;;;;;;9.63;8.40;;;15.60;99.90;;;;;;5012313;28;20034;-66
2023/09/06 04:20:31;;;;;;;12.20;8.07;;;15.60;99.90;;;;;;5003246;28;20444;-66
2023/09/06 04:22:58;;;;;;;9.02;7.78;;;15.50;99.90;;;;;;5011847;28;20085;-66
2023/09/06 04:25:26;;;;;;;11.80;7.90;;;15.50;99.90;;;;;;5012401;28;20046;-66
2023/09/06 04:27:56;;;;;;;9.75;8.02;;;15.50;99.90;;;;;;5003210;28;20054;-66
2023/09/06 04:30:23;;;;;;;14.23;9.45;;;15.40;99.90;;;;;;5005980;28;20291;-66
2023/09/06 04:32:48;;;;;;;14.70;10.90;;;15.50;99.90;;;;;;5008208;28;20046;-66
2023/09/06 04:35:15;;;;;;;15.00;10.50;;;15.70;99.90;;;;;;5007033;28;20057;-66
2023/09/06 04:37:41;;;;;;;14.27;10.15;;;15.80;99.90;;;;;;5000332;28;20103;-66
2023/09/06 04:40:13;;;;;;;19.10;10.63;;;15.90;99.90;;;;;;5011551;28;20034;-66
2023/09/06 04:42:42;;;;;;;13.13;10.68;;;16.00;99.90;;;;;;5009571;28;20040;-66
2023/09/06 04:45:11;;;;;;;15.25;11.40;;;16.10;99.90;;;;;;5002105;28;20045;-66
2023/09/06 04:47:42;;;;;;;16.20;11.63;;;16.10;99.90;;;;;;5008533;28;20616;-66
2023/09/06 04:50:08;;;;;;;;;;;16.10;99.90;;;;;;5009469;28;20038;-66
2023/09/06 04:52:43;;;;;;;17.25;10.35;;;16.20;99.90;;;;;;5007331;28;20253;-66
2023/09/06 04:55:09;;;;;;;17.00;10.82;;;16.10;99.90;;;;;;5008810;28;20041;-66
2023/09/06 04:57:38;;;;;;;11.90;9.60;;;16.20;99.90;;;;;;5005934;28;20046;-66
2023/09/06 05:00:18;;;;;;;15.88;9.93;;;16.10;99.90;;;;;;5008464;28;20619;-65
2023/09/06 05:02:47;;;;;;;13.60;9.10;;;16.10;99.90;;;;;;5006831;28;20092;-65
2023/09/06 05:05:14;;;;;;;13.70;9.20;;;16.10;99.90;;;;;;5004314;28;20034;-65
2023/09/06 05:07:45;;;;;;;11.60;10.10;;;16.00;99.90;;;;;;5008504;28;20401;-66
2023/09/06 05:10:11;;;;;;;15.73;10.93;;;16.00;99.90;;;;;;5010073;28;20176;-66
2023/09/06 05:12:37;;;;;;;17.17;10.75;;;16.10;99.90;;;;;;5005106;28;20575;-66
2023/09/06 05:15:07;;;;;;;18.80;9.98;;;16.10;99.90;;;;;;4993521;28;20392;-67
2023/09/06 05:17:33;;;;;;;22.35;10.80;;;16.10;99.90;;;;;;4989886;28;20113;-66
2023/09/06 05:20:32;;;;;;;13.93;10.10;;;16.20;99.90;;;;;;5002711;28;20037;-68
2023/09/06 05:23:03;;;;;;;20.38;10.27;;;16.20;99.90;;;;;;5004341;28;20120;-67
2023/09/06 05:25:29;;;;;;;15.70;10.27;;;16.20;99.90;;;;;;5000172;28;20050;-67
2023/09/06 05:27:57;;;;;;;16.27;10.63;;;16.20;99.90;;;;;;5010475;28;20044;-66
2023/09/06 05:30:27;;;;;;;18.70;11.00;;;16.30;99.90;;;;;;5005926;28;20515;-66
2023/09/06 05:32:56;;;;;;;14.38;8.95;;;16.30;99.90;;;;;;5011215;28;20567;-66
2023/09/06 05:35:23;;;;;;;13.15;10.13;;;16.30;99.90;;;;;;4998411;28;20117;-66
2023/09/06 05:37:49;;;;;;;14.23;9.63;;;16.30;99.90;;;;;;5009608;28;20026;-66
2023/09/06 05:40:15;;;;;;;12.30;10.20;;;16.30;99.90;;;;;;5004167;28;20546;-66
2023/09/06 05:42:41;;;;;;;17.98;10.95;;;16.40;99.90;;;;;;5005521;28;20077;-66
2023/09/06 05:45:10;;;;;;;14.40;10.63;;;16.40;99.90;;;;;;5008546;28;20045;-65
2023/09/06 05:47:36;;;;;;;15.23;10.93;;;16.50;99.90;;;;;;5010863;28;20091;-70
2023/09/06 05:50:02;;;;;;;13.55;11.15;;;16.60;99.90;;;;;;5002582;28;20128;-69
2023/09/06 05:52:28;;;;;;;16.55;10.60;;;16.70;99.90;;;;;;4983711;28;20125;-67
2023/09/06 05:54:54;;;;;;;14.93;11.25;;;16.70;99.90;;;;;;5009553;28;20120;-67
2023/09/06 05:57:20;;;;;;;16.20;12.20;;;16.80;99.90;;;;;;5007637;28;20038;-67
2023/09/06 05:59:45;;;;;;;19.83;12.00;;;16.90;99.90;;;;;;4992194;28;20042;-68
2023/09/06 06:02:11;;;;;;;16.70;11.32;;;17.00;99.90;;;;;;5009068;28;20042;-68
2023/09/06 06:04:37;;;;;;;20.45;11.38;;;17.00;99.90;;;;;;5014151;28;20069;-66
2023/09/06 06:07:03;;;;;;;15.70;11.48;;;17.00;99.90;;;;;;5010447;28;20103;-67
2023/09/06 06:09:28;;;;;;;14.00;10.43;;;17.10;99.90;;;;;;5003689;28;20121;-68
2023/09/06 06:11:54;;;;;;;15.73;11.57;;;17.10;99.90;;;;;;5013976;28;20034;-67
2023/09/06 06:14:20;;;;;;;15.48;11.23;;;17.10;99.90;;;;;;5021470;23;20046;-67
2023/09/06 06:16:46;;;;;;;17.17;11.98;;;17.20;99.90;;;;;;5028536;28;20042;-69
2023/09/06 06:19:12;;;;;;;22.42;12.13;;;17.30;99.90;;;;;;5023392;28;20480;-68
2023/09/06 06:21:38;;;;;;;18.40;11.90;;;17.40;99.90;;;;;;5037947;28;20080;-67
2023/09/06 06:24:08;;;;;;;16.67;12.32;;;17.40;99.90;;;;;;5027553;28;20115;-67
2023/09/06 06:26:33;;;;;;;13.35;11.25;;;17.50;99.90;;;;;;5029430;28;20037;-67
2023/09/06 06:28:59;;;;;;;15.63;11.82;;;17.60;99.90;;;;;;5024515;28;20038;-67
2023/09/06 06:31:25;;;;;;;17.90;12.30;;;17.70;99.90;;;;;;5028344;28;20059;-67
2023/09/06 06:33:50;;;;;;;16.77;11.85;;;17.80;99.90;;;;;;5023188;28;20052;-67
2023/09/06 06:36:16;;;;;;;21.88;12.02;;;17.90;99.90;;;;;;5036854;28;20040;-69
2023/09/06 06:38:46;;;;;;;19.42;11.75;;;17.90;99.90;;;;;;5027725;28;20033;-68
2023/09/06 06:41:20;;;;;;;17.30;12.27;;;18.00;99.90;;;;;;5016098;28;20029;-67
2023/09/06 06:43:49;;;;;;;16.27;12.27;;;18.10;99.90;;;;;;5035674;28;20096;-69
2023/09/06 06:46:30;;;;;;;13.77;11.57;;;18.20;99.90;;;;;;5035503;28;20120;-67
2023/09/06 06:48:57;;;;;;;14.20;10.93;;;18.30;99.90;;;;;;5034112;28;20029;-69
2023/09/06 06:51:35;;;;;;;15.68;11.43;;;18.40;99.90;;;;;;5016853;28;20059;-67
2023/09/06 06:54:08;;;;;;;18.30;11.43;;;18.40;99.90;;;;;;5024213;28;20042;-68
2023/09/06 06:56:35;;;;;;;17.40;12.38;;;18.60;99.90;;;;;;5034280;28;20045;-67
2023/09/06 06:59:02;;;;;;;19.77;12.55;;;18.60;99.90;;;;;;5002170;28;20391;-67
2023/09/06 07:01:28;;;;;;;19.48;12.77;;;18.70;99.90;;;;;;5029478;28;20029;-67
2023/09/06 07:03:54;;;;;;;25.95;12.75;;;18.80;99.90;;;;;;5023400;28;20067;-67
2023/09/06 07:06:21;;;;;;;19.25;11.70;;;18.90;99.90;;;;;;5006159;28;20475;-68
2023/09/06 07:08:47;;;;;;;17.13;10.93;;;19.00;99.90;;;;;;5016620;28;20042;-68
2023/09/06 07:11:12;;;;;;;23.58;11.20;;;19.00;99.90;;;;;;5027098;28;20450;-68
2023/09/06 07:13:38;;;;;;;24.48;11.00;;;19.10;99.90;;;;;;5029878;28;20083;-67
2023/09/06 07:16:04;;;;;;;18.00;11.70;;;19.20;99.90;;;;;;5017110;28;20056;-67
2023/09/06 07:18:30;;;;;;;18.75;11.25;;;19.30;99.90;;;;;;4993328;28;20034;-67
2023/09/06 07:20:56;;;;;;;13.05;10.23;;;19.40;99.90;;;;;;5017297;28;20133;-68
2023/09/06 07:23:22;;;;;;;11.50;10.00;;;19.50;99.90;;;;;;5031755;28;20156;-68
2023/09/06 07:25:47;;;;;;;12.82;9.55;;;19.60;99.90;;;;;;5009656;28;20049;-68
2023/09/06 07:28:13;;;;;;;12.05;9.55;;;19.70;99.90;;;;;;5026083;28;20030;-68
2023/09/06 07:30:40;;;;;;;16.65;10.13;;;19.80;99.90;;;;;;5009702;28;20550;-67
2023/09/06 07:33:06;;;;;;;12.63;9.10;;;19.90;99.90;;;;;;5009431;28;20478;-67
2023/09/06 07:35:31;;;;;;;11.85;8.68;;;20.00;99.90;;;;;;5032168;28;20500;-67
2023/09/06 07:37:58;;;;;;;12.55;8.80;;;20.20;99.90;;;;;;5032060;28;20079;-67
2023/09/06 07:40:24;;;;;;;15.48;9.32;;;20.20;99.90;;;;;;5026794;28;20034;-70
2023/09/06 07:42:49;;;;;;;12.05;7.93;;;20.30;99.90;;;;;;5035771;28;20548;-69
2023/09/06 07:45:15;;;;;;;11.18;7.80;;;20.50;99.90;;;;;;5036139;28;20044;-69
2023/09/06 07:47:41;;;;;;;10.98;7.45;;;20.60;99.90;;;;;;5019096;28;20040;-69
2023/09/06 07:50:09;;;;;;;13.55;8.60;;;20.70;99.90;;;;;;5022016;28;20044;-67
2023/09/06 07:52:35;;;;;;;9.60;6.60;;;20.80;99.90;;;;;;5016546;28;20148;-69
2023/09/06 07:55:00;;;;;;;8.38;6.03;;;21.00;99.90;;;;;;5002688;28;20048;-68
2023/09/06 07:57:26;;;;;;;8.18;5.63;;;21.10;99.90;;;;;;5023844;28;20042;-67
2023/09/06 07:59:52;;;;;;;7.85;5.88;;;21.20;99.90;;;;;;5032860;28;20041;-69
2023/09/06 08:02:17;;;;;;;8.23;5.00;;;21.30;99.90;;;;;;5018475;28;20069;-69
2023/09/06 08:04:43;;;;;;;7.35;5.25;;;21.40;99.90;;;;;;5031014;28;20095;-69
2023/09/06 08:07:08;;;;;;;8.90;5.60;;;21.40;99.90;;;;;;5026931;28;20751;-68
2023/09/06 08:09:35;;;;;;;9.48;5.70;;;21.50;99.90;;;;;;5016998;28;20045;-69
2023/09/06 08:12:02;;;;;;;7.85;5.50;;;21.60;99.90;;;;;;5008113;28;20091;-69
2023/09/06 08:14:29;;;;;;;6.25;5.07;;;21.60;99.90;;;;;;4981122;28;20041;-69
2023/09/06 08:16:55;;;;;;;6.65;5.45;;;21.70;99.90;;;;;;4992988;28;20041;-68
2023/09/06 08:19:20;;;;;;;9.63;5.30;;;21.80;99.90;;;;;;5030196;28;20034;-69
2023/09/06 08:21:46;;;;;;;7.72;5.40;;;21.90;99.90;;;;;;4973303;28;20049;-68
2023/09/06 08:24:12;;;;;;;6.63;5.10;;;21.90;99.90;;;;;;4994665;28;20052;-69
2023/09/06 08:26:37;;;;;;;7.00;4.88;;;22.00;99.90;;;;;;4977121;28;20065;-68
2023/09/06 08:29:05;;;;;;;10.02;5.32;;;22.00;99.90;;;;;;4986327;28;20034;-68
2023/09/06 08:31:31;;;;;;;8.07;5.20;;;22.10;99.90;;;;;;5000425;28;20041;-68
2023/09/06 08:33:56;;;;;;;7.65;5.20;;;22.20;99.90;;;;;;4984940;28;20040;-68
2023/09/06 08:36:22;;;;;;;6.97;5.18;;;22.20;99.90;;;;;;5010740;28;20037;-67
2023/09/06 08:38:47;;;;;;;9.70;4.60;;;22.30;99.90;;;;;;4976729;28;20042;-67
2023/09/06 08:41:13;;;;;;;6.65;5.28;;;22.40;99.90;;;;;;4995622;28;20113;-67
2023/09/06 08:43:43;;;;;;;11.77;4.97;;;22.50;99.90;;;;;;4982710;28;20065;-67
2023/09/06 08:46:13;;;;;;;6.63;4.65;;;22.60;99.90;;;;;;5015604;28;20029;-67
2023/09/06 08:48:41;;;;;;;7.00;4.93;;;22.60;99.90;;;;;;5020490;28;20175;-67
2023/09/06 08:51:07;;;;;;;9.07;5.00;;;22.60;99.90;;;;;;5031396;28;20479;-67
2023/09/06 08:53:34;;;;;;;5.78;4.32;;;22.80;99.90;;;;;;5025744;28;20141;-67
2023/09/06 08:56:01;;;;;;;5.93;4.60;;;22.80;99.90;;;;;;5014106;28;20042;-67
2023/09/06 08:58:28;;;;;;;6.90;4.90;;;22.90;99.90;;;;;;5013223;28;20103;-68
2023/09/06 09:00:54;;;;;;;7.35;4.80;;;22.90;99.90;;;;;;5013711;28;20041;-69
2023/09/06 09:03:20;;;;;;;6.57;4.70;;;23.00;99.90;;;;;;5017420;28;20064;-69
2023/09/06 09:05:46;;;;;;;8.18;4.80;;;23.10;99.90;;;;;;5005797;28;20567;-69
2023/09/06 09:08:11;;;;;;;6.95;5.10;;;23.20;99.90;;;;;;5032080;28;20052;-67
2023/09/06 09:10:37;;;;;;;6.78;4.97;;;23.20;99.90;;;;;;5021320;28;20033;-67
2023/09/06 09:13:02;;;;;;;6.88;4.88;;;23.30;99.90;;;;;;5023500;28;20446;-67
2023/09/06 09:15:33;;;;;;;9.52;4.90;;;23.30;99.90;;;;;;5031031;28;20108;-67
2023/09/06 09:17:59;;;;;;;6.55;4.50;;;23.40;99.90;;;;;;5031151;28;20041;-67
2023/09/06 09:20:26;;;;;;;7.63;4.70;;;23.50;99.90;;;;;;5016082;28;20055;-67
2023/09/06 09:22:52;;;;;;;8.32;5.47;;;23.50;99.90;;;;;;5015578;28;20124;-67
2023/09/06 09:25:23;;;;;;;6.78;4.90;;;23.60;99.90;;;;;;5027716;28;20109;-68
2023/09/06 09:27:56;;;;;;;11.15;5.60;;;23.70;99.90;;;;;;5014733;28;20091;-68
2023/09/06 09:30:21;;;;;;;9.82;5.32;;;23.70;99.90;;;;;;5020158;28;20045;-69
2023/09/06 09:32:48;;;;;;;14.93;6.07;;;23.80;99.90;;;;;;5029545;28;20033;-67
2023/09/06 09:35:14;;;;;;;11.02;5.05;;;23.90;99.90;;;;;;4958156;28;20103;-67
2023/09/06 09:37:41;;;;;;;8.75;5.65;;;23.90;99.90;;;;;;4975850;28;20128;-67
2023/09/06 09:40:20;;;;;;;7.80;5.22;;;23.90;99.90;;;;;;4981582;28;20041;-68
2023/09/06 09:42:57;;;;;;;8.13;5.32;;;24.00;99.90;;;;;;4966200;28;20492;-69
2023/09/06 09:45:30;;;;;;;8.73;5.43;;;24.10;99.90;;;;;;4975670;28;20503;-68
2023/09/06 09:47:59;;;;;;;8.02;5.53;;;24.20;99.90;;;;;;4991740;28;20040;-66
2023/09/06 09:50:26;;;;;;;9.25;4.57;;;24.30;99.90;;;;;;4992575;28;20056;-69
2023/09/06 09:52:52;;;;;;;9.27;4.95;;;24.40;99.90;;;;;;5015162;28;20045;-67
2023/09/06 09:55:22;;;;;;;9.65;4.93;;;24.40;99.90;;;;;;5033071;28;20496;-68
2023/09/06 09:57:48;;;;;;;7.43;4.47;;;24.40;99.90;;;;;;5014339;28;20045;-69
2023/09/06 10:00:14;;;;;;;6.38;4.70;;;24.50;99.90;;;;;;5027934;28;20044;-69
2023/09/06 10:02:45;;;;;;;6.35;5.22;;;24.50;99.90;;;;;;5010851;28;20041;-69
2023/09/06 10:05:16;;;;;;;5.35;4.50;;;24.60;99.90;;;;;;5028093;28;20029;-68
2023/09/06 10:07:42;;;;;;;8.40;4.75;;;24.70;99.90;;;;;;5034030;28;20112;-68
2023/09/06 10:10:10;;;;;;;9.93;4.90;;;24.80;99.90;;;;;;5017287;28;20067;-67
2023/09/06 10:12:40;;;;;;;6.82;4.90;;;24.80;99.90;;;;;;5008951;28;20077;-69
2023/09/06 10:15:08;;;;;;;7.05;5.13;;;24.90;99.90;;;;;;5035199;28;20048;-67
2023/09/06 10:17:34;;;;;;;7.75;4.10;;;25.00;99.90;;;;;;5013352;28;20057;-67
2023/09/06 10:20:00;;;;;;;7.47;5.00;;;25.00;99.90;;;;;;5030702;28;20029;-67
2023/09/06 10:22:26;;;;;;;5.05;4.05;;;25.20;99.90;;;;;;5023196;28;20038;-68
2023/09/06 10:24:53;;;;;;;5.97;4.15;;;25.20;99.90;;;;;;5025710;28;20116;-68
2023/09/06 10:27:18;;;;;;;5.93;3.97;;;25.30;99.90;;;;;;5027853;28;20491;-67
2023/09/06 10:29:53;;;;;;;5.40;4.00;;;25.40;99.90;;;;;;5034312;28;20068;-67
2023/09/06 10:32:22;;;;;;;6.10;4.57;;;25.40;99.90;;;;;;5028515;28;20065;-69
2023/09/06 10:35:24;;;;;;;5.63;4.00;;;25.50;99.90;;;;;;4990248;28;20049;-68
2023/09/06 10:38:11;;;;;;;7.00;3.95;;;25.60;99.90;;;;;;5014687;28;20091;-68
2023/09/06 10:40:53;;;;;;;5.70;4.03;;;25.70;99.90;;;;;;5018279;28;20041;-70
2023/09/06 10:43:29;;;;;;;4.60;3.58;;;25.70;99.90;;;;;;5018527;28;20049;-68
2023/09/06 10:46:24;;;;;;;5.78;3.90;;;25.90;99.90;;;;;;5001453;28;20055;-68
2023/09/06 10:49:11;;;;;;;6.03;4.00;;;26.00;99.90;;;;;;5004983;28;20056;-68
2023/09/06 10:51:56;;;;;;;6.05;3.67;;;26.10;99.90;;;;;;5005828;28;20144;-68
2023/09/06 10:54:38;;;;;;;9.40;3.83;;;26.20;99.90;;;;;;5010545;28;20033;-68
2023/09/06 10:57:08;;;;;;;5.40;3.58;;;26.30;99.90;;;;;;5016204;28;20049;-68
2023/09/06 11:00:12;;;;;;;6.07;3.85;;;26.40;99.90;;;;;;5026792;28;20564;-68
2023/09/06 11:02:38;;;;;;;14.02;4.03;;;26.40;99.90;;;;;;4982932;28;20041;-68
2023/09/06 11:05:09;;;;;;;4.60;4.10;;;26.50;99.90;;;;;;5033524;28;20045;-68
2023/09/06 11:07:43;;;;;;;7.40;3.70;;;26.60;99.90;;;;;;5007739;28;20045;-68
2023/09/06 11:10:09;;;;;;;5.78;3.47;;;26.70;99.90;;;;;;5030090;28;20443;-68
2023/09/06 11:12:36;;;;;;;4.63;3.42;;;26.80;99.90;;;;;;5017952;28;20038;-68
2023/09/06 11:15:01;;;;;;;6.28;3.92;;;26.80;99.90;;;;;;5029441;28;20033;-68
2023/09/06 11:17:27;;;;;;;5.57;3.45;;;26.90;99.90;;;;;;5033040;28;20048;-68
2023/09/06 11:19:52;;;;;;;5.03;3.70;;;26.90;99.90;;;;;;5033788;28;20041;-68
2023/09/06 11:22:19;;;;;;;5.95;3.63;;;27.00;99.90;;;;;;5018096;28;20168;-68
2023/09/06 11:24:45;;;;;;;6.00;3.80;;;27.10;99.90;;;;;;5010126;28;20045;-69
2023/09/06 11:27:33;;;;;;;6.60;3.63;;;27.10;99.90;;;;;;5021011;28;20044;-69
2023/09/06 11:30:16;;;;;;;5.97;4.30;;;27.20;99.50;;;;;;5006193;28;20508;-69
2023/09/06 11:33:01;;;;;;;5.50;3.30;;;27.30;99.90;;;;;;5025805;28;20073;-68
2023/09/06 11:35:33;;;;;;;4.35;3.40;;;27.40;99.20;;;;;;5022480;28;20090;-69
2023/09/06 11:38:00;;;;;;;4.32;3.42;;;27.40;99.90;;;;;;5014248;28;20046;-68
2023/09/06 11:40:28;;;;;;;4.32;3.10;;;27.50;99.90;;;;;;5032920;28;20052;-68
2023/09/06 11:42:59;;;;;;;4.68;3.03;;;27.50;99.90;;;;;;5017083;28;20084;-67
2023/09/06 11:45:25;;;;;;;4.15;3.30;;;27.60;99.90;;;;;;5028292;28;20037;-67
2023/09/06 11:47:59;;;;;;;5.13;3.70;;;27.60;99.90;;;;;;5032208;28;20064;-67
2023/09/06 11:50:29;;;;;;;4.65;3.30;;;27.70;99.70;;;;;;5012536;28;20091;-67
2023/09/06 11:52:56;;;;;;;4.20;3.28;;;27.70;99.90;;;;;;5029384;28;20025;-67
2023/09/06 11:55:22;;;;;;;5.45;3.40;;;27.80;99.90;;;;;;5031958;28;20069;-67
2023/09/06 11:57:57;;;;;;;4.38;3.15;;;27.80;99.90;;;;;;5028609;28;20095;-67
2023/09/06 12:00:35;;;;;;;4.38;3.30;;;28.00;99.90;;;;;;5025112;28;20049;-67
2023/09/06 12:03:07;;;;;;;4.03;3.20;;;28.00;99.70;;;;;;5015207;28;20121;-67
2023/09/06 12:05:35;;;;;;;5.38;3.40;;;28.10;99.80;;;;;;5029327;28;20037;-67
2023/09/06 12:08:01;;;;;;;6.82;3.83;;;28.20;99.40;;;;;;4974412;28;20041;-67
2023/09/06 12:10:28;;;;;;;5.57;3.30;;;28.20;99.20;;;;;;4980534;28;20080;-67
2023/09/06 12:12:56;;;;;;;5.57;3.42;;;28.20;99.00;;;;;;4984071;28;20514;-67
2023/09/06 12:15:25;;;;;;;6.88;3.70;;;28.30;99.20;;;;;;5042916;23;20108;-67
2023/09/06 12:17:51;;;;;;;5.68;3.40;;;28.30;99.00;;;;;;4984916;28;20057;-67
2023/09/06 12:20:23;;;;;;;6.97;3.30;;;28.40;99.00;;;;;;4971850;28;20069;-67
2023/09/06 12:22:49;;;;;;;9.25;4.05;;;28.50;98.30;;;;;;5011279;28;20132;-68
2023/09/06 12:25:16;;;;;;;8.05;3.67;;;28.40;98.30;;;;;;4982223;28;20109;-67
2023/09/06 12:27:42;;;;;;;5.95;3.58;;;28.50;98.50;;;;;;4975081;28;20057;-67
2023/09/06 12:30:12;;;;;;;11.75;3.78;;;28.50;98.40;;;;;;4997218;28;20128;-67
2023/09/06 12:32:41;;;;;;;5.93;3.40;;;28.60;98.30;;;;;;5005511;28;20042;-68
2023/09/06 12:35:07;;;;;;;4.55;3.38;;;28.70;98.60;;;;;;5007672;28;20045;-68
2023/09/06 12:37:39;;;;;;;4.43;3.33;;;28.80;98.80;;;;;;5001609;28;20120;-68
2023/09/06 12:40:10;;;;;;;6.35;3.60;;;28.80;98.20;;;;;;5011531;28;20046;-68
2023/09/06 12:42:44;;;;;;;6.60;4.07;;;28.90;98.10;;;;;;4995317;28;20053;-69
2023/09/06 12:45:18;;;;;;;8.15;3.95;;;29.00;98.70;;;;;;5011770;28;20045;-68
2023/09/06 12:47:43;;;;;;;4.70;3.67;;;29.00;98.10;;;;;;5004247;28;20072;-68